Airfield :
LOGIN :

Register | Disclaimer

   EN    FR    IT 

 










Legend :    VFR   Marginal VFR   IFR   Intensive IFR   Very Intensive IFR
Visi :
Ceiling :
>= 8 km
>= 3000ft
5 to 8 km
1000 to 3000 ft
1500m to 5 km
500 to 1000 ft
800 to 1500m
200 to 500 ft
< 800m
< 200 ft
Symbols :   Thunderstorms  Fog  Heavy snow  Heavy precipitations  Wind > 20 kt
SIGMETs :     Misc.  Thunderstorms  Icing  Turbulence  Mountain Waves  Volcanic Ashes







- Airport Elevation : 20 ft


LIPF - Ferrara

CURRENT METAR :
  • 250855Z 09002KT 4000 -RA BR SCT025 BKN030 19/18 Q1017

EXPIRED METARs :
  • 250755Z 09003KT 4000 -RA BR SCT025 BKN030 16/16 Q1016 RMK OVC VIS MIN 4000
  • 250655Z 24003KT 6000 -RA SCT025 BKN030 16/15 Q1015 RMK OVC VIS MIN 9999

TAF N/A
No reported NOTAMs for that airfield.
4 SIGMETs reported for the Milano FIR (LIMM) :
 
Embedded thunderstorms
LIMM SIGMET 6 VALID 250940/251140 LIIP
LIMM MILANO FIR EMBD TS OBS WI N4442 E01251 - N4412 E01130 - N4343 E01213 - N4334 E01402 - N4442 E01251 TOP FL320 MOV SSE WKN=
Severe turbulence
LIMM SIGMET 5 VALID 250900/251300 LIIP
LIMM MILANO FIR SEV TURB FCST E OF LINE N4618 E00851 - N4324 E00830 FL250/330 MOV E NC=
Embedded thunderstorms
LIMM SIGMET 4 VALID 250740/250940 LIIP
LIMM MILANO FIR EMBD TS OBS WI N4509 E01236 - N4508 E01159 - N4418 E01202 - N4415 E01118 - N4344 E01214 - N4333 E01334 - N4509 E01236 TOP FL320 MOV SSE WKN=
Severe turbulence
LIMM SIGMET 3 VALID 250500/250900 LIIP
LIMM MILANO FIR SEV TURB FCST E OF LINE N4618 E00851 - N4333 E00741 FL250/330 MOV E NC=



MET'MAP, your aeronautical weather chart ! - Copyright ORBIFLY December 2007 - Disclaimer

ORBIFLY MET'MAP TEAM :

Programming & Development : Alexandra Zaïnal
Concept & Development : Baudouin d'Aumeries
Co-Development & Prog : Marc-Olivier Méhu
Technical & hardware support : Manuel Goepfert

Contact : metmap@orbifly.com




SOURCES & CREDITS :

   NOAA